Fort Pierce, FL

00:26 EDT le 30 août 2014 (GMT -0400)
Witham | Change Station
CLOSE
Current Station
Aéroport
Location: Stuart,
Altitude: 20 ft
Stations météo à proximité

Alt. 20 ft 27.18 °N, 80.22 °W | Updated 11 minutes ago

Thunderstorm
Orage
79 ° F
Paraît 79 ° F
N
8
Vent Variable Vent de NNE

Aujourd'hui
Haut(e) -- | Bas -- ° F
--% Risque de précip.
Hier
Haut(e) -- | Bas -- ° F
Precip. -- pouce
6:59 AM 7:44 PM
Lune montante, 19% visible
Pression 30.15 pouce
Visibilité 10.0 Miles terrestres
Nuages Nuages épars 1400 ft
Nuages épars 2100 ft
Nuageux 3700 ft
Point de rosée 73 ° F
Humidité 83%
Précipitations 0.00 pouce
Profondeur de la couche neigeuse Non disponible.
UV 0 sur 12
Pollen 4.70 sur 12
Qualité de l'air Non disponible.
Flu Activity Non disponible.
METAR KSUA 300415Z AUTO 02007KT 10SM TS SCT014 SCT021 BKN037 26/23 A3015 RMK AO2 LTG DSNT NW THRU NE

More Conditions Fewer Conditions

Pression 30.15 pouce
Visibilité 10.0 Miles terrestres
Nuages Nuages épars 1400 ft
Nuages épars 2100 ft
Nuageux 3700 ft
Point de rosée 73 ° F
Humidité 83%
Précipitations 0.00 pouce
Profondeur de la couche neigeuse Non disponible.
UV 0 sur 12
Pollen 4.70 sur 12
Qualité de l'air Non disponible.
Flu Activity Non disponible.
METAR KSUA 300415Z AUTO 02007KT 10SM TS SCT014 SCT021 BKN037 26/23 A3015 RMK AO2 LTG DSNT NW THRU NE

More Conditions Fewer Conditions

10-Day Weather Forecast

Almanac

Astronomie

Aug. 30, 2014 Lever Coucher
Temps réel 06:59 EDT 19:44 EDT
Crépuscule civil 06:36 EDT 20:08 EDT
Crépuscule nautique 06:08 EDT 20:36 EDT
Crépuscule astronomique 05:39 EDT 21:04 EDT
Lune 11:17 EDT 22:47 EDT
Durée de lumière visible 13h 32m
Longueur du jour
12h 44m
Tomorrow will be 1m 33s shorter.
Lune montante, 19% of the Moon is Illuminated
Aujourd'hui
Lune montante
Sep 2
Premier quartier
Sep 8
Pleine lune
Sep 15
Dernier quartier
Sep 24
Nouveau

Les extrêmes de température d’hier

State Highs State Lows

Community

WunderPhotos

Upload Photos

1,748,451 Photos téléchargées !

Nearby

Épaisseur de neige

Station Depth Altitude
Pas de nouvelles chutes de neige

Activité sismique

Ville Distance Mag. Time & Date
No recent earthquake activity has been reported nearby.
Minimum magnitude displayed is 2.5.

Températures des eaux côtières

Lieu Température
Lake Worth, FL 87.1 ° F
Trident Pier, FL 84.9 ° F
Virginia Key, FL 87.1 ° F

Stations météo à proximité